sensor_id;sensor_type;location;lat;lon;timestamp;P1;durP1;ratioP1;P2;durP2;ratioP2
69783;SDS011;57054;51.978;4.498;2023-03-16T00:01:55;4.25;;;3.95;;
69783;SDS011;57054;51.978;4.498;2023-03-16T00:04:21;4.32;;;4.03;;
69783;SDS011;57054;51.978;4.498;2023-03-16T00:06:46;4.53;;;4.13;;
69783;SDS011;57054;51.978;4.498;2023-03-16T00:09:11;4.97;;;4.47;;
69783;SDS011;57054;51.978;4.498;2023-03-16T00:11:37;4.70;;;4.38;;
69783;SDS011;57054;51.978;4.498;2023-03-16T00:14:02;3.78;;;3.58;;
69783;SDS011;57054;51.978;4.498;2023-03-16T00:16:28;3.50;;;3.20;;
69783;SDS011;57054;51.978;4.498;2023-03-16T00:18:54;4.38;;;4.05;;
69783;SDS011;57054;51.978;4.498;2023-03-16T00:21:19;4.35;;;3.95;;
69783;SDS011;57054;51.978;4.498;2023-03-16T00:23:45;4.38;;;4.07;;
69783;SDS011;57054;51.978;4.498;2023-03-16T00:26:10;4.45;;;4.15;;
69783;SDS011;57054;51.978;4.498;2023-03-16T00:28:37;4.80;;;4.20;;
69783;SDS011;57054;51.978;4.498;2023-03-16T00:31:03;4.70;;;4.30;;
69783;SDS011;57054;51.978;4.498;2023-03-16T00:33:30;4.45;;;4.15;;
69783;SDS011;57054;51.978;4.498;2023-03-16T00:36:02;4.57;;;4.18;;
69783;SDS011;57054;51.978;4.498;2023-03-16T00:38:33;4.43;;;4.00;;
69783;SDS011;57054;51.978;4.498;2023-03-16T00:41:04;4.95;;;4.28;;
69783;SDS011;57054;51.978;4.498;2023-03-16T00:43:32;4.20;;;3.90;;
69783;SDS011;57054;51.978;4.498;2023-03-16T00:46:17;4.50;;;4.20;;
69783;SDS011;57054;51.978;4.498;2023-03-16T00:48:44;4.38;;;4.03;;
69783;SDS011;57054;51.978;4.498;2023-03-16T00:51:14;4.50;;;4.10;;
69783;SDS011;57054;51.978;4.498;2023-03-16T00:53:42;4.85;;;4.45;;
69783;SDS011;57054;51.978;4.498;2023-03-16T00:56:09;4.40;;;4.10;;
69783;SDS011;57054;51.978;4.498;2023-03-16T00:58:36;4.43;;;4.13;;
69783;SDS011;57054;51.978;4.498;2023-03-16T01:01:04;4.60;;;4.20;;
69783;SDS011;57054;51.978;4.498;2023-03-16T01:03:29;4.70;;;4.30;;
69783;SDS011;57054;51.978;4.498;2023-03-16T01:05:55;4.70;;;4.15;;
69783;SDS011;57054;51.978;4.498;2023-03-16T01:08:24;4.57;;;4.18;;
69783;SDS011;57054;51.978;4.498;2023-03-16T01:10:52;3.90;;;3.67;;
69783;SDS011;57054;51.978;4.498;2023-03-16T01:13:18;4.60;;;4.20;;
69783;SDS011;57054;51.978;4.498;2023-03-16T01:15:45;4.32;;;3.97;;
69783;SDS011;57054;51.978;4.498;2023-03-16T01:18:10;4.90;;;4.43;;
69783;SDS011;57054;51.978;4.498;2023-03-16T01:20:37;4.88;;;4.32;;
69783;SDS011;57054;51.978;4.498;2023-03-16T01:23:03;5.03;;;4.22;;
69783;SDS011;57054;51.978;4.498;2023-03-16T01:25:29;4.60;;;4.22;;
69783;SDS011;57054;51.978;4.498;2023-03-16T01:27:54;4.75;;;4.35;;
69783;SDS011;57054;51.978;4.498;2023-03-16T01:30:20;4.75;;;4.32;;
69783;SDS011;57054;51.978;4.498;2023-03-16T01:32:45;4.38;;;4.05;;
69783;SDS011;57054;51.978;4.498;2023-03-16T01:35:10;4.65;;;4.32;;
69783;SDS011;57054;51.978;4.498;2023-03-16T01:37:36;5.88;;;4.00;;
69783;SDS011;57054;51.978;4.498;2023-03-16T01:40:01;4.30;;;3.95;;
69783;SDS011;57054;51.978;4.498;2023-03-16T01:42:30;5.63;;;4.28;;
69783;SDS011;57054;51.978;4.498;2023-03-16T01:44:57;4.07;;;3.78;;
69783;SDS011;57054;51.978;4.498;2023-03-16T01:47:26;4.82;;;4.43;;
69783;SDS011;57054;51.978;4.498;2023-03-16T01:49:52;4.55;;;4.13;;
69783;SDS011;57054;51.978;4.498;2023-03-16T01:52:20;5.13;;;4.72;;
69783;SDS011;57054;51.978;4.498;2023-03-16T01:57:27;4.32;;;4.00;;
69783;SDS011;57054;51.978;4.498;2023-03-16T02:00:06;4.63;;;4.22;;
69783;SDS011;57054;51.978;4.498;2023-03-16T02:08:32;4.45;;;4.05;;
69783;SDS011;57054;51.978;4.498;2023-03-16T02:10:59;6.80;;;4.85;;
69783;SDS011;57054;51.978;4.498;2023-03-16T02:13:28;4.60;;;4.18;;
69783;SDS011;57054;51.978;4.498;2023-03-16T02:15:58;9.38;;;5.60;;
69783;SDS011;57054;51.978;4.498;2023-03-16T02:18:23;7.18;;;4.47;;
69783;SDS011;57054;51.978;4.498;2023-03-16T02:21:04;5.30;;;4.30;;
69783;SDS011;57054;51.978;4.498;2023-03-16T02:23:36;4.78;;;4.28;;
69783;SDS011;57054;51.978;4.498;2023-03-16T02:26:10;4.68;;;4.28;;
69783;SDS011;57054;51.978;4.498;2023-03-16T02:29:04;3.90;;;3.60;;
69783;SDS011;57054;51.978;4.498;2023-03-16T02:31:36;4.18;;;3.78;;
69783;SDS011;57054;51.978;4.498;2023-03-16T02:34:03;4.53;;;4.22;;
69783;SDS011;57054;51.978;4.498;2023-03-16T02:36:28;4.60;;;4.30;;
69783;SDS011;57054;51.978;4.498;2023-03-16T02:38:55;4.35;;;3.97;;
69783;SDS011;57054;51.978;4.498;2023-03-16T02:41:21;4.72;;;3.80;;
69783;SDS011;57054;51.978;4.498;2023-03-16T02:43:47;4.22;;;3.92;;
69783;SDS011;57054;51.978;4.498;2023-03-16T02:46:18;3.92;;;3.63;;
69783;SDS011;57054;51.978;4.498;2023-03-16T02:48:49;4.38;;;4.03;;
69783;SDS011;57054;51.978;4.498;2023-03-16T02:51:40;3.72;;;3.42;;
69783;SDS011;57054;51.978;4.498;2023-03-16T02:54:06;4.63;;;4.13;;
69783;SDS011;57054;51.978;4.498;2023-03-16T02:56:31;5.15;;;3.97;;
69783;SDS011;57054;51.978;4.498;2023-03-16T02:58:57;3.90;;;3.60;;
69783;SDS011;57054;51.978;4.498;2023-03-16T03:01:22;4.32;;;3.67;;
69783;SDS011;57054;51.978;4.498;2023-03-16T03:03:48;4.07;;;3.60;;
69783;SDS011;57054;51.978;4.498;2023-03-16T03:06:14;4.38;;;4.05;;
69783;SDS011;57054;51.978;4.498;2023-03-16T03:08:39;4.30;;;3.90;;
69783;SDS011;57054;51.978;4.498;2023-03-16T03:11:06;4.07;;;3.78;;
69783;SDS011;57054;51.978;4.498;2023-03-16T03:13:32;5.00;;;4.15;;
69783;SDS011;57054;51.978;4.498;2023-03-16T03:15:58;4.70;;;4.30;;
69783;SDS011;57054;51.978;4.498;2023-03-16T03:18:24;4.30;;;3.90;;
69783;SDS011;57054;51.978;4.498;2023-03-16T03:20:49;4.55;;;4.15;;
69783;SDS011;57054;51.978;4.498;2023-03-16T03:23:15;3.97;;;3.67;;
69783;SDS011;57054;51.978;4.498;2023-03-16T03:25:41;4.25;;;3.95;;
69783;SDS011;57054;51.978;4.498;2023-03-16T03:28:07;4.47;;;4.03;;
69783;SDS011;57054;51.978;4.498;2023-03-16T03:30:33;5.53;;;3.70;;
69783;SDS011;57054;51.978;4.498;2023-03-16T03:32:59;3.88;;;3.60;;
69783;SDS011;57054;51.978;4.498;2023-03-16T03:35:25;4.25;;;3.80;;
69783;SDS011;57054;51.978;4.498;2023-03-16T03:37:51;3.97;;;3.67;;
69783;SDS011;57054;51.978;4.498;2023-03-16T03:40:17;4.00;;;3.60;;
69783;SDS011;57054;51.978;4.498;2023-03-16T03:42:43;5.95;;;5.07;;
69783;SDS011;57054;51.978;4.498;2023-03-16T03:45:09;5.32;;;4.82;;
69783;SDS011;57054;51.978;4.498;2023-03-16T03:47:37;5.72;;;4.53;;
69783;SDS011;57054;51.978;4.498;2023-03-16T03:50:02;4.53;;;4.13;;
69783;SDS011;57054;51.978;4.498;2023-03-16T03:52:28;4.32;;;3.90;;
69783;SDS011;57054;51.978;4.498;2023-03-16T03:54:54;6.10;;;4.18;;
69783;SDS011;57054;51.978;4.498;2023-03-16T03:57:19;4.45;;;3.97;;
69783;SDS011;57054;51.978;4.498;2023-03-16T03:59:44;4.60;;;4.20;;
69783;SDS011;57054;51.978;4.498;2023-03-16T04:02:10;4.47;;;4.05;;
69783;SDS011;57054;51.978;4.498;2023-03-16T04:04:37;5.47;;;4.07;;
69783;SDS011;57054;51.978;4.498;2023-03-16T04:07:03;4.78;;;3.75;;
69783;SDS011;57054;51.978;4.498;2023-03-16T04:09:29;5.03;;;3.78;;
69783;SDS011;57054;51.978;4.498;2023-03-16T04:11:57;4.20;;;3.60;;
69783;SDS011;57054;51.978;4.498;2023-03-16T04:14:24;5.55;;;3.80;;
69783;SDS011;57054;51.978;4.498;2023-03-16T04:16:50;4.18;;;3.78;;
69783;SDS011;57054;51.978;4.498;2023-03-16T04:19:15;3.83;;;3.55;;
69783;SDS011;57054;51.978;4.498;2023-03-16T04:21:41;4.10;;;3.45;;
69783;SDS011;57054;51.978;4.498;2023-03-16T04:24:06;3.58;;;3.20;;
69783;SDS011;57054;51.978;4.498;2023-03-16T04:26:31;3.50;;;3.20;;
69783;SDS011;57054;51.978;4.498;2023-03-16T04:28:58;4.10;;;3.42;;
69783;SDS011;57054;51.978;4.498;2023-03-16T04:31:23;4.18;;;3.53;;
69783;SDS011;57054;51.978;4.498;2023-03-16T04:33:49;3.97;;;3.17;;
69783;SDS011;57054;51.978;4.498;2023-03-16T04:38:44;3.40;;;3.10;;
69783;SDS011;57054;51.978;4.498;2023-03-16T04:41:09;3.13;;;2.92;;
69783;SDS011;57054;51.978;4.498;2023-03-16T04:43:35;3.65;;;3.15;;
69783;SDS011;57054;51.978;4.498;2023-03-16T04:46:01;3.78;;;3.10;;
69783;SDS011;57054;51.978;4.498;2023-03-16T04:48:28;4.55;;;3.05;;
69783;SDS011;57054;51.978;4.498;2023-03-16T04:50:54;3.25;;;2.95;;
69783;SDS011;57054;51.978;4.498;2023-03-16T04:53:19;3.35;;;2.92;;
69783;SDS011;57054;51.978;4.498;2023-03-16T04:55:45;2.97;;;2.67;;
69783;SDS011;57054;51.978;4.498;2023-03-16T04:58:11;4.72;;;2.72;;
69783;SDS011;57054;51.978;4.498;2023-03-16T05:00:37;5.43;;;2.40;;
69783;SDS011;57054;51.978;4.498;2023-03-16T05:03:04;2.70;;;2.50;;
69783;SDS011;57054;51.978;4.498;2023-03-16T05:05:30;2.67;;;2.47;;
69783;SDS011;57054;51.978;4.498;2023-03-16T05:07:56;2.40;;;2.20;;
69783;SDS011;57054;51.978;4.498;2023-03-16T05:10:21;2.65;;;2.45;;
69783;SDS011;57054;51.978;4.498;2023-03-16T05:12:47;2.92;;;2.65;;
69783;SDS011;57054;51.978;4.498;2023-03-16T05:15:13;3.70;;;2.50;;
69783;SDS011;57054;51.978;4.498;2023-03-16T05:17:39;5.13;;;2.58;;
69783;SDS011;57054;51.978;4.498;2023-03-16T05:20:06;4.15;;;2.38;;
69783;SDS011;57054;51.978;4.498;2023-03-16T05:22:33;2.58;;;2.38;;
69783;SDS011;57054;51.978;4.498;2023-03-16T05:24:59;2.60;;;2.40;;
69783;SDS011;57054;51.978;4.498;2023-03-16T05:27:28;2.63;;;2.30;;
69783;SDS011;57054;51.978;4.498;2023-03-16T05:29:54;4.07;;;2.55;;
69783;SDS011;57054;51.978;4.498;2023-03-16T05:32:19;4.28;;;2.10;;
69783;SDS011;57054;51.978;4.498;2023-03-16T05:34:45;3.65;;;2.40;;
69783;SDS011;57054;51.978;4.498;2023-03-16T05:37:11;2.10;;;1.90;;
69783;SDS011;57054;51.978;4.498;2023-03-16T05:39:36;4.70;;;2.65;;
69783;SDS011;57054;51.978;4.498;2023-03-16T05:42:01;4.35;;;2.05;;
69783;SDS011;57054;51.978;4.498;2023-03-16T05:44:27;2.63;;;2.20;;
69783;SDS011;57054;51.978;4.498;2023-03-16T05:46:53;2.58;;;2.38;;
69783;SDS011;57054;51.978;4.498;2023-03-16T05:49:18;3.10;;;1.92;;
69783;SDS011;57054;51.978;4.498;2023-03-16T05:51:43;3.67;;;2.15;;
69783;SDS011;57054;51.978;4.498;2023-03-16T05:54:09;2.67;;;2.10;;
69783;SDS011;57054;51.978;4.498;2023-03-16T05:56:34;2.00;;;1.90;;
69783;SDS011;57054;51.978;4.498;2023-03-16T05:59:00;2.50;;;1.80;;
69783;SDS011;57054;51.978;4.498;2023-03-16T06:01:26;2.75;;;2.08;;
69783;SDS011;57054;51.978;4.498;2023-03-16T06:03:52;2.35;;;1.77;;
69783;SDS011;57054;51.978;4.498;2023-03-16T06:06:17;2.45;;;2.00;;
69783;SDS011;57054;51.978;4.498;2023-03-16T06:08:43;4.03;;;2.35;;
69783;SDS011;57054;51.978;4.498;2023-03-16T06:11:09;2.10;;;2.00;;
69783;SDS011;57054;51.978;4.498;2023-03-16T06:13:36;2.17;;;1.98;;
69783;SDS011;57054;51.978;4.498;2023-03-16T06:16:02;3.47;;;2.05;;
69783;SDS011;57054;51.978;4.498;2023-03-16T06:18:27;2.72;;;1.95;;
69783;SDS011;57054;51.978;4.498;2023-03-16T06:20:53;1.85;;;1.75;;
69783;SDS011;57054;51.978;4.498;2023-03-16T06:23:19;2.17;;;1.98;;
69783;SDS011;57054;51.978;4.498;2023-03-16T06:25:46;1.88;;;1.73;;
69783;SDS011;57054;51.978;4.498;2023-03-16T06:28:11;2.35;;;1.83;;
69783;SDS011;57054;51.978;4.498;2023-03-16T06:30:37;3.25;;;1.80;;
69783;SDS011;57054;51.978;4.498;2023-03-16T06:33:03;2.20;;;2.00;;
69783;SDS011;57054;51.978;4.498;2023-03-16T06:35:28;2.42;;;2.13;;
69783;SDS011;57054;51.978;4.498;2023-03-16T06:37:54;1.98;;;1.88;;
69783;SDS011;57054;51.978;4.498;2023-03-16T06:40:19;2.25;;;2.08;;
69783;SDS011;57054;51.978;4.498;2023-03-16T06:42:45;1.85;;;1.75;;
69783;SDS011;57054;51.978;4.498;2023-03-16T06:45:10;2.45;;;2.25;;
69783;SDS011;57054;51.978;4.498;2023-03-16T06:47:36;2.22;;;2.13;;
69783;SDS011;57054;51.978;4.498;2023-03-16T06:50:01;5.65;;;2.05;;
69783;SDS011;57054;51.978;4.498;2023-03-16T06:52:27;3.35;;;2.40;;
69783;SDS011;57054;51.978;4.498;2023-03-16T06:54:52;2.60;;;2.40;;
69783;SDS011;57054;51.978;4.498;2023-03-16T06:57:18;2.78;;;2.10;;
69783;SDS011;57054;51.978;4.498;2023-03-16T06:59:43;2.70;;;2.13;;
69783;SDS011;57054;51.978;4.498;2023-03-16T07:02:10;2.40;;;2.20;;
69783;SDS011;57054;51.978;4.498;2023-03-16T07:04:37;3.90;;;1.98;;
69783;SDS011;57054;51.978;4.498;2023-03-16T07:07:03;3.58;;;2.20;;
69783;SDS011;57054;51.978;4.498;2023-03-16T07:09:28;4.40;;;2.55;;
69783;SDS011;57054;51.978;4.498;2023-03-16T07:11:54;2.40;;;2.20;;
69783;SDS011;57054;51.978;4.498;2023-03-16T07:14:19;5.10;;;2.47;;
69783;SDS011;57054;51.978;4.498;2023-03-16T07:16:46;2.67;;;2.30;;
69783;SDS011;57054;51.978;4.498;2023-03-16T07:19:12;2.20;;;2.05;;
69783;SDS011;57054;51.978;4.498;2023-03-16T07:21:37;2.58;;;2.38;;
69783;SDS011;57054;51.978;4.498;2023-03-16T07:24:06;1.83;;;1.73;;
69783;SDS011;57054;51.978;4.498;2023-03-16T07:26:32;2.30;;;2.10;;
69783;SDS011;57054;51.978;4.498;2023-03-16T07:28:58;2.30;;;2.10;;
69783;SDS011;57054;51.978;4.498;2023-03-16T07:31:24;2.53;;;2.33;;
69783;SDS011;57054;51.978;4.498;2023-03-16T07:33:49;3.30;;;3.00;;
69783;SDS011;57054;51.978;4.498;2023-03-16T07:36:15;2.25;;;2.00;;
69783;SDS011;57054;51.978;4.498;2023-03-16T07:38:40;5.40;;;2.70;;
69783;SDS011;57054;51.978;4.498;2023-03-16T07:41:06;2.55;;;2.05;;
69783;SDS011;57054;51.978;4.498;2023-03-16T07:43:32;3.80;;;2.10;;
69783;SDS011;57054;51.978;4.498;2023-03-16T07:45:57;3.03;;;1.95;;
69783;SDS011;57054;51.978;4.498;2023-03-16T07:48:23;4.05;;;2.38;;
69783;SDS011;57054;51.978;4.498;2023-03-16T07:50:48;2.60;;;2.10;;
69783;SDS011;57054;51.978;4.498;2023-03-16T07:53:14;2.28;;;2.08;;
69783;SDS011;57054;51.978;4.498;2023-03-16T07:55:40;3.13;;;2.17;;
69783;SDS011;57054;51.978;4.498;2023-03-16T07:58:06;2.53;;;1.95;;
69783;SDS011;57054;51.978;4.498;2023-03-16T08:00:34;2.28;;;2.10;;
69783;SDS011;57054;51.978;4.498;2023-03-16T08:02:59;6.20;;;2.90;;
69783;SDS011;57054;51.978;4.498;2023-03-16T08:05:26;3.38;;;1.90;;
69783;SDS011;57054;51.978;4.498;2023-03-16T08:07:51;2.58;;;1.92;;
69783;SDS011;57054;51.978;4.498;2023-03-16T08:10:17;2.22;;;2.10;;
69783;SDS011;57054;51.978;4.498;2023-03-16T08:12:43;3.95;;;2.42;;
69783;SDS011;57054;51.978;4.498;2023-03-16T08:15:09;2.30;;;1.90;;
69783;SDS011;57054;51.978;4.498;2023-03-16T08:17:35;2.35;;;2.15;;
69783;SDS011;57054;51.978;4.498;2023-03-16T08:20:02;2.85;;;2.28;;
69783;SDS011;57054;51.978;4.498;2023-03-16T08:22:39;4.97;;;2.35;;
69783;SDS011;57054;51.978;4.498;2023-03-16T08:25:05;3.17;;;1.85;;
69783;SDS011;57054;51.978;4.498;2023-03-16T08:27:34;2.95;;;2.17;;
69783;SDS011;57054;51.978;4.498;2023-03-16T08:30:00;4.03;;;2.30;;
69783;SDS011;57054;51.978;4.498;2023-03-16T08:32:31;3.30;;;2.50;;
69783;SDS011;57054;51.978;4.498;2023-03-16T08:34:57;2.35;;;1.77;;
69783;SDS011;57054;51.978;4.498;2023-03-16T08:37:24;2.78;;;2.35;;
69783;SDS011;57054;51.978;4.498;2023-03-16T08:39:49;2.75;;;2.17;;
69783;SDS011;57054;51.978;4.498;2023-03-16T08:42:15;4.13;;;2.60;;
69783;SDS011;57054;51.978;4.498;2023-03-16T08:44:41;6.85;;;2.72;;
69783;SDS011;57054;51.978;4.498;2023-03-16T08:47:07;2.83;;;1.85;;
69783;SDS011;57054;51.978;4.498;2023-03-16T08:49:34;2.47;;;2.10;;
69783;SDS011;57054;51.978;4.498;2023-03-16T08:52:00;4.22;;;2.60;;
69783;SDS011;57054;51.978;4.498;2023-03-16T08:54:26;3.55;;;2.00;;
69783;SDS011;57054;51.978;4.498;2023-03-16T08:56:51;5.65;;;2.53;;
69783;SDS011;57054;51.978;4.498;2023-03-16T08:59:17;3.53;;;2.08;;
69783;SDS011;57054;51.978;4.498;2023-03-16T09:01:42;3.42;;;2.20;;
69783;SDS011;57054;51.978;4.498;2023-03-16T09:04:08;6.28;;;2.95;;
69783;SDS011;57054;51.978;4.498;2023-03-16T09:06:33;4.38;;;2.30;;
69783;SDS011;57054;51.978;4.498;2023-03-16T09:09:00;4.65;;;2.35;;
69783;SDS011;57054;51.978;4.498;2023-03-16T09:11:25;3.42;;;2.28;;
69783;SDS011;57054;51.978;4.498;2023-03-16T09:16:20;2.90;;;2.00;;
69783;SDS011;57054;51.978;4.498;2023-03-16T09:18:49;3.10;;;2.50;;
69783;SDS011;57054;51.978;4.498;2023-03-16T09:21:15;4.72;;;2.05;;
69783;SDS011;57054;51.978;4.498;2023-03-16T09:23:41;4.82;;;2.40;;
69783;SDS011;57054;51.978;4.498;2023-03-16T09:26:09;4.05;;;2.28;;
69783;SDS011;57054;51.978;4.498;2023-03-16T09:28:36;2.10;;;1.90;;
69783;SDS011;57054;51.978;4.498;2023-03-16T09:31:03;3.92;;;1.92;;
69783;SDS011;57054;51.978;4.498;2023-03-16T09:33:29;4.45;;;2.38;;
69783;SDS011;57054;51.978;4.498;2023-03-16T09:35:56;3.95;;;2.08;;
69783;SDS011;57054;51.978;4.498;2023-03-16T09:38:23;3.08;;;1.92;;
69783;SDS011;57054;51.978;4.498;2023-03-16T09:40:55;5.03;;;2.30;;
69783;SDS011;57054;51.978;4.498;2023-03-16T09:48:36;4.35;;;1.73;;
69783;SDS011;57054;51.978;4.498;2023-03-16T09:51:04;2.80;;;1.90;;
69783;SDS011;57054;51.978;4.498;2023-03-16T09:53:52;3.30;;;1.88;;
69783;SDS011;57054;51.978;4.498;2023-03-16T09:56:28;2.28;;;1.83;;
69783;SDS011;57054;51.978;4.498;2023-03-16T09:58:59;4.07;;;1.95;;
69783;SDS011;57054;51.978;4.498;2023-03-16T10:01:42;5.07;;;2.17;;
69783;SDS011;57054;51.978;4.498;2023-03-16T10:12:45;2.88;;;1.92;;
69783;SDS011;57054;51.978;4.498;2023-03-16T10:15:24;3.38;;;1.80;;
69783;SDS011;57054;51.978;4.498;2023-03-16T10:17:58;5.82;;;2.03;;
69783;SDS011;57054;51.978;4.498;2023-03-16T10:20:31;3.20;;;1.80;;
69783;SDS011;57054;51.978;4.498;2023-03-16T10:22:58;3.38;;;1.60;;
69783;SDS011;57054;51.978;4.498;2023-03-16T10:25:34;2.03;;;1.83;;
69783;SDS011;57054;51.978;4.498;2023-03-16T10:28:09;2.55;;;1.73;;
69783;SDS011;57054;51.978;4.498;2023-03-16T10:30:39;2.30;;;1.58;;
69783;SDS011;57054;51.978;4.498;2023-03-16T10:43:45;4.20;;;1.98;;
69783;SDS011;57054;51.978;4.498;2023-03-16T10:46:13;3.67;;;1.95;;
69783;SDS011;57054;51.978;4.498;2023-03-16T10:48:38;4.97;;;1.70;;
69783;SDS011;57054;51.978;4.498;2023-03-16T10:51:06;1.70;;;1.55;;
69783;SDS011;57054;51.978;4.498;2023-03-16T10:53:37;7.72;;;2.45;;
69783;SDS011;57054;51.978;4.498;2023-03-16T10:56:10;2.03;;;1.70;;
69783;SDS011;57054;51.978;4.498;2023-03-16T10:58:44;3.45;;;2.05;;
69783;SDS011;57054;51.978;4.498;2023-03-16T11:01:11;2.05;;;1.73;;
69783;SDS011;57054;51.978;4.498;2023-03-16T11:03:52;2.20;;;1.63;;
69783;SDS011;57054;51.978;4.498;2023-03-16T11:06:23;4.03;;;1.83;;
69783;SDS011;57054;51.978;4.498;2023-03-16T11:08:50;4.43;;;1.77;;
69783;SDS011;57054;51.978;4.498;2023-03-16T11:11:28;7.18;;;1.58;;
69783;SDS011;57054;51.978;4.498;2023-03-16T11:13:57;3.13;;;1.90;;
69783;SDS011;57054;51.978;4.498;2023-03-16T11:19:13;3.15;;;1.55;;
69783;SDS011;57054;51.978;4.498;2023-03-16T11:21:59;6.53;;;2.35;;
69783;SDS011;57054;51.978;4.498;2023-03-16T11:24:29;3.92;;;2.05;;
69783;SDS011;57054;51.978;4.498;2023-03-16T11:27:33;4.93;;;1.60;;
69783;SDS011;57054;51.978;4.498;2023-03-16T11:32:35;2.45;;;1.45;;
69783;SDS011;57054;51.978;4.498;2023-03-16T11:35:04;4.75;;;1.60;;
69783;SDS011;57054;51.978;4.498;2023-03-16T11:37:41;2.83;;;1.50;;
69783;SDS011;57054;51.978;4.498;2023-03-16T11:43:15;3.95;;;1.20;;
69783;SDS011;57054;51.978;4.498;2023-03-16T11:48:36;4.28;;;1.75;;
69783;SDS011;57054;51.978;4.498;2023-03-16T11:51:04;5.72;;;1.60;;
69783;SDS011;57054;51.978;4.498;2023-03-16T11:56:34;6.80;;;1.80;;
69783;SDS011;57054;51.978;4.498;2023-03-16T11:59:13;2.00;;;1.30;;
69783;SDS011;57054;51.978;4.498;2023-03-16T12:01:53;6.47;;;1.42;;
69783;SDS011;57054;51.978;4.498;2023-03-16T12:09:45;4.47;;;1.80;;
69783;SDS011;57054;51.978;4.498;2023-03-16T12:17:26;3.25;;;0.93;;
69783;SDS011;57054;51.978;4.498;2023-03-16T12:19:59;5.95;;;1.58;;
69783;SDS011;57054;51.978;4.498;2023-03-16T12:23:12;5.03;;;1.10;;
69783;SDS011;57054;51.978;4.498;2023-03-16T12:25:24;3.50;;;1.35;;
69783;SDS011;57054;51.978;4.498;2023-03-16T12:27:54;2.88;;;1.00;;
69783;SDS011;57054;51.978;4.498;2023-03-16T12:30:25;16.90;;;1.15;;
69783;SDS011;57054;51.978;4.498;2023-03-16T12:36:16;3.50;;;0.98;;
69783;SDS011;57054;51.978;4.498;2023-03-16T12:50:05;4.22;;;1.27;;
69783;SDS011;57054;51.978;4.498;2023-03-16T12:52:39;6.10;;;1.33;;
69783;SDS011;57054;51.978;4.498;2023-03-16T12:57:44;5.82;;;1.40;;
69783;SDS011;57054;51.978;4.498;2023-03-16T13:02:49;4.10;;;1.20;;
69783;SDS011;57054;51.978;4.498;2023-03-16T13:05:26;3.03;;;1.13;;
69783;SDS011;57054;51.978;4.498;2023-03-16T13:08:12;2.53;;;1.20;;
69783;SDS011;57054;51.978;4.498;2023-03-16T13:10:40;7.13;;;1.83;;
69783;SDS011;57054;51.978;4.498;2023-03-16T13:13:10;3.55;;;1.30;;
69783;SDS011;57054;51.978;4.498;2023-03-16T13:15:38;11.45;;;1.35;;
69783;SDS011;57054;51.978;4.498;2023-03-16T13:25:43;5.15;;;1.45;;
69783;SDS011;57054;51.978;4.498;2023-03-16T13:28:21;3.33;;;1.15;;
69783;SDS011;57054;51.978;4.498;2023-03-16T13:30:53;3.65;;;1.88;;
69783;SDS011;57054;51.978;4.498;2023-03-16T13:33:20;5.82;;;0.95;;
69783;SDS011;57054;51.978;4.498;2023-03-16T13:35:48;4.72;;;1.10;;
69783;SDS011;57054;51.978;4.498;2023-03-16T13:38:16;1.90;;;1.08;;
69783;SDS011;57054;51.978;4.498;2023-03-16T13:40:44;4.82;;;1.20;;
69783;SDS011;57054;51.978;4.498;2023-03-16T13:43:15;3.90;;;1.30;;
69783;SDS011;57054;51.978;4.498;2023-03-16T13:45:41;4.30;;;1.15;;
69783;SDS011;57054;51.978;4.498;2023-03-16T13:48:14;4.50;;;0.98;;
69783;SDS011;57054;51.978;4.498;2023-03-16T13:50:40;3.33;;;1.00;;
69783;SDS011;57054;51.978;4.498;2023-03-16T13:53:49;2.97;;;0.80;;
69783;SDS011;57054;51.978;4.498;2023-03-16T13:55:57;3.25;;;0.80;;
69783;SDS011;57054;51.978;4.498;2023-03-16T13:58:30;8.63;;;1.00;;
69783;SDS011;57054;51.978;4.498;2023-03-16T14:00:58;5.57;;;1.00;;
69783;SDS011;57054;51.978;4.498;2023-03-16T14:03:30;2.00;;;0.83;;
69783;SDS011;57054;51.978;4.498;2023-03-16T14:05:57;2.13;;;1.00;;
69783;SDS011;57054;51.978;4.498;2023-03-16T14:08:23;3.40;;;1.50;;
69783;SDS011;57054;51.978;4.498;2023-03-16T14:10:50;5.60;;;1.00;;
69783;SDS011;57054;51.978;4.498;2023-03-16T14:15:54;1.35;;;0.65;;
69783;SDS011;57054;51.978;4.498;2023-03-16T14:18:34;4.28;;;0.90;;
69783;SDS011;57054;51.978;4.498;2023-03-16T14:21:08;3.22;;;1.23;;
69783;SDS011;57054;51.978;4.498;2023-03-16T14:23:39;2.78;;;0.80;;
69783;SDS011;57054;51.978;4.498;2023-03-16T14:26:14;10.13;;;1.40;;
69783;SDS011;57054;51.978;4.498;2023-03-16T14:31:21;5.68;;;1.17;;
69783;SDS011;57054;51.978;4.498;2023-03-16T14:33:59;5.25;;;1.23;;
69783;SDS011;57054;51.978;4.498;2023-03-16T14:36:32;3.00;;;1.00;;
69783;SDS011;57054;51.978;4.498;2023-03-16T14:39:08;3.25;;;1.00;;
69783;SDS011;57054;51.978;4.498;2023-03-16T14:41:43;0.93;;;0.77;;
69783;SDS011;57054;51.978;4.498;2023-03-16T14:46:45;2.75;;;0.90;;
69783;SDS011;57054;51.978;4.498;2023-03-16T14:51:49;3.85;;;1.30;;
69783;SDS011;57054;51.978;4.498;2023-03-16T14:54:18;2.75;;;1.10;;
69783;SDS011;57054;51.978;4.498;2023-03-16T14:56:50;6.05;;;0.82;;
69783;SDS011;57054;51.978;4.498;2023-03-16T14:59:17;1.92;;;0.98;;
69783;SDS011;57054;51.978;4.498;2023-03-16T15:01:43;13.55;;;1.30;;
69783;SDS011;57054;51.978;4.498;2023-03-16T15:04:12;3.58;;;0.88;;
69783;SDS011;57054;51.978;4.498;2023-03-16T15:06:39;1.13;;;0.80;;
69783;SDS011;57054;51.978;4.498;2023-03-16T15:09:04;5.78;;;1.10;;
69783;SDS011;57054;51.978;4.498;2023-03-16T15:11:31;1.50;;;1.02;;
69783;SDS011;57054;51.978;4.498;2023-03-16T15:13:57;3.75;;;0.90;;
69783;SDS011;57054;51.978;4.498;2023-03-16T15:16:38;4.45;;;0.95;;
69783;SDS011;57054;51.978;4.498;2023-03-16T15:19:04;3.58;;;0.90;;
69783;SDS011;57054;51.978;4.498;2023-03-16T15:21:29;4.20;;;1.00;;
69783;SDS011;57054;51.978;4.498;2023-03-16T15:23:55;2.95;;;0.90;;
69783;SDS011;57054;51.978;4.498;2023-03-16T15:28:51;5.60;;;0.93;;
69783;SDS011;57054;51.978;4.498;2023-03-16T15:31:18;4.00;;;0.88;;
69783;SDS011;57054;51.978;4.498;2023-03-16T15:33:43;2.38;;;1.00;;
69783;SDS011;57054;51.978;4.498;2023-03-16T15:36:19;1.23;;;0.90;;
69783;SDS011;57054;51.978;4.498;2023-03-16T15:38:47;3.95;;;0.80;;
69783;SDS011;57054;51.978;4.498;2023-03-16T15:41:14;2.55;;;0.80;;
69783;SDS011;57054;51.978;4.498;2023-03-16T15:43:40;3.80;;;0.80;;
69783;SDS011;57054;51.978;4.498;2023-03-16T15:46:06;2.40;;;0.70;;
69783;SDS011;57054;51.978;4.498;2023-03-16T15:48:31;2.20;;;0.98;;
69783;SDS011;57054;51.978;4.498;2023-03-16T15:51:05;4.38;;;1.08;;
69783;SDS011;57054;51.978;4.498;2023-03-16T15:53:37;2.03;;;0.73;;
69783;SDS011;57054;51.978;4.498;2023-03-16T15:56:10;1.65;;;0.60;;
69783;SDS011;57054;51.978;4.498;2023-03-16T15:58:39;3.45;;;1.20;;
69783;SDS011;57054;51.978;4.498;2023-03-16T16:01:07;1.50;;;0.63;;
69783;SDS011;57054;51.978;4.498;2023-03-16T16:03:37;1.65;;;0.85;;
69783;SDS011;57054;51.978;4.498;2023-03-16T16:06:02;1.63;;;1.00;;
69783;SDS011;57054;51.978;4.498;2023-03-16T16:08:33;2.33;;;0.80;;
69783;SDS011;57054;51.978;4.498;2023-03-16T16:10:59;0.90;;;0.75;;
69783;SDS011;57054;51.978;4.498;2023-03-16T16:13:26;6.82;;;0.90;;
69783;SDS011;57054;51.978;4.498;2023-03-16T16:15:53;5.43;;;0.90;;
69783;SDS011;57054;51.978;4.498;2023-03-16T16:20:52;6.03;;;1.10;;
69783;SDS011;57054;51.978;4.498;2023-03-16T16:23:18;5.38;;;0.75;;
69783;SDS011;57054;51.978;4.498;2023-03-16T16:25:44;1.80;;;0.90;;
69783;SDS011;57054;51.978;4.498;2023-03-16T16:28:14;3.20;;;0.80;;
69783;SDS011;57054;51.978;4.498;2023-03-16T16:30:42;1.75;;;0.80;;
69783;SDS011;57054;51.978;4.498;2023-03-16T16:35:54;2.13;;;0.80;;
69783;SDS011;57054;51.978;4.498;2023-03-16T16:38:22;1.08;;;0.73;;
69783;SDS011;57054;51.978;4.498;2023-03-16T16:40:48;7.43;;;0.73;;
69783;SDS011;57054;51.978;4.498;2023-03-16T16:45:49;2.28;;;0.73;;